China Lake Naws (Armitage Field) Airport
KNID : now visible

Airfield :











YOU CAN JOIN US ON...

 
LOGIN :

Register | Disclaimer

   EN    FR    IT 

 









Legend :    VFR   Marginal VFR   IFR   Intensive IFR   Very Intensive IFR
Visi :
Ceiling :
>= 8 km
>= 3000ft
5 to 8 km
1000 to 3000 ft
1500m to 5 km
500 to 1000 ft
800 to 1500m
200 to 500 ft
< 800m
< 200 ft
Symbols :   Thunderstorms  Fog  Heavy snow  Heavy precipitations  Wind > 20 kt






- Airport Elevation : 2283 ft


KNID - China Lake Naws (Armitage Field)

CURRENT METAR :
  • 021356Z 00000KT 10SM CLR M02/M09 A3033 RMK AO2 SLP283 T10221094 $

EXPIRED METARs :
  • 021256Z 00000KT 10SM CLR M03/M09 A3031 RMK AO2 SLP276 T10331094 $
  • 021156Z AUTO 00000KT 10SM CLR M01/M09 A3030 RMK AO2 SLP268 T10061089 10044 21011 53005 $

TAF AMD TAF KNID
Valid from the 02 at 06:00 until the 02 at 23:00 UTC


0206/0223 21006KT 9999 FEW250 QNH3020INS
BECMG 0210/0212 VRB05KT 9999 SCT250 QNH3033INS
BECMG 0216/0218 17006KT 9999 FEW180 SCT250 QNH3025INS LAST NO AMD AFT 0206 NEXT 0215 TM04/0213Z T15/0222Z AMD 0605
KZLA FIR / North America



MET'MAP, your aeronautical weather chart ! - Copyright ORBIFLY December 2007 - Disclaimer

ORBIFLY MET'MAP TEAM :

Programming & Development : Alexandra Zaïnal
Original concept : Baudouin d'Aumeries
Technical & hardware support : Manuel Goepfert
Assistance : Marc-Olivier Méhu




SOURCES & CREDITS :

   NOAA       Earth
Advisory